createdAt,value
2023-02-08T00:01:45.076Z,21.70
2023-02-08T00:04:16.535Z,19.60
2023-02-08T00:06:47.977Z,21.40
2023-02-08T00:09:19.411Z,22.52
2023-02-08T00:11:50.908Z,21.88
2023-02-08T00:14:22.396Z,21.15
2023-02-08T00:16:53.831Z,21.45
2023-02-08T00:19:25.215Z,24.80
2023-02-08T00:21:56.659Z,22.45
2023-02-08T00:24:28.122Z,20.77
2023-02-08T00:26:59.584Z,20.52
2023-02-08T00:29:31.000Z,20.05
2023-02-08T00:32:02.531Z,24.35
2023-02-08T00:34:34.034Z,21.80
2023-02-08T00:37:06.448Z,21.58
2023-02-08T00:39:37.982Z,22.15
2023-02-08T00:42:09.548Z,21.42
2023-02-08T00:44:41.028Z,24.75
2023-02-08T00:47:12.451Z,20.15
2023-02-08T00:49:43.917Z,21.73
2023-02-08T00:52:15.351Z,21.47
2023-02-08T00:54:47.137Z,20.15
2023-02-08T00:57:18.616Z,20.95
2023-02-08T00:59:50.100Z,19.25
2023-02-08T01:02:21.545Z,22.55
2023-02-08T01:04:53.025Z,23.58
2023-02-08T01:07:24.499Z,22.37
2023-02-08T01:09:55.950Z,19.80
2023-02-08T01:12:27.380Z,20.85
2023-02-08T01:14:58.842Z,19.60
2023-02-08T01:17:30.292Z,19.33
2023-02-08T01:20:01.739Z,21.88
2023-02-08T01:22:33.200Z,20.35
2023-02-08T01:25:04.788Z,18.83
2023-02-08T01:27:36.243Z,21.45
2023-02-08T01:30:08.405Z,20.48
2023-02-08T01:32:39.953Z,19.38
2023-02-08T01:35:11.375Z,20.10
2023-02-08T01:37:42.787Z,19.95
2023-02-08T01:40:14.241Z,20.80
2023-02-08T01:42:45.674Z,19.95
2023-02-08T01:45:17.084Z,18.95
2023-02-08T01:47:54.008Z,20.60
2023-02-08T01:50:32.198Z,19.58
2023-02-08T01:53:04.621Z,18.58
2023-02-08T01:55:42.892Z,17.85
2023-02-08T01:58:17.039Z,20.95
2023-02-08T02:00:48.732Z,20.83
2023-02-08T02:03:22.852Z,18.52
2023-02-08T02:06:21.342Z,19.90
2023-02-08T02:09:12.349Z,21.40
2023-02-08T02:11:44.288Z,19.23
2023-02-08T02:14:16.075Z,18.55
2023-02-08T02:16:47.544Z,21.95
2023-02-08T02:19:33.191Z,20.58
2023-02-08T02:22:18.583Z,21.13
2023-02-08T02:25:26.232Z,21.23
2023-02-08T02:28:09.846Z,23.35
2023-02-08T02:30:59.508Z,22.83
2023-02-08T02:33:41.239Z,20.13
2023-02-08T02:36:31.069Z,19.92
2023-02-08T02:39:35.731Z,19.05
2023-02-08T02:42:16.017Z,18.00
2023-02-08T02:45:24.639Z,22.30
2023-02-08T02:47:58.805Z,21.13
2023-02-08T02:50:48.276Z,20.60
2023-02-08T02:53:26.811Z,18.80
2023-02-08T02:56:08.856Z,19.80
2023-02-08T02:58:42.677Z,18.13
2023-02-08T03:01:14.366Z,20.38
2023-02-08T03:03:45.791Z,19.03
2023-02-08T03:06:43.266Z,18.58
2023-02-08T03:09:17.365Z,18.63
2023-02-08T03:12:01.986Z,19.80
2023-02-08T03:14:58.623Z,21.52
2023-02-08T03:18:05.103Z,20.17
2023-02-08T03:20:44.415Z,19.25
2023-02-08T03:23:26.883Z,19.63
2023-02-08T03:26:20.232Z,22.00
2023-02-08T03:29:23.411Z,18.42
2023-02-08T03:32:07.209Z,20.90
2023-02-08T03:34:45.597Z,18.00
2023-02-08T03:38:04.856Z,19.33
2023-02-08T03:40:46.460Z,21.37
2023-02-08T03:43:25.652Z,19.83
2023-02-08T03:46:06.874Z,19.73
2023-02-08T03:48:42.493Z,21.45
2023-02-08T03:51:16.789Z,23.02
2023-02-08T03:53:50.478Z,19.00
2023-02-08T03:56:31.902Z,20.33
2023-02-08T03:59:09.477Z,18.23
2023-02-08T04:02:01.382Z,21.80
2023-02-08T04:04:36.599Z,20.65
2023-02-08T04:07:08.708Z,20.45
2023-02-08T04:09:40.220Z,19.92
2023-02-08T04:12:12.416Z,23.90
2023-02-08T04:14:43.897Z,20.70
2023-02-08T04:17:15.368Z,23.92
2023-02-08T04:19:46.982Z,21.33
2023-02-08T04:22:18.406Z,18.90
2023-02-08T04:24:49.811Z,20.63
2023-02-08T04:27:21.282Z,20.58
2023-02-08T04:29:52.742Z,20.33
2023-02-08T04:32:24.150Z,21.38
2023-02-08T04:34:55.589Z,20.48
2023-02-08T04:37:27.062Z,21.90
2023-02-08T04:39:58.467Z,20.92
2023-02-08T04:42:29.998Z,20.08
2023-02-08T04:45:01.416Z,22.13
2023-02-08T04:47:32.898Z,19.90
2023-02-08T04:50:06.324Z,22.93
2023-02-08T04:52:37.756Z,19.80
2023-02-08T04:55:09.230Z,19.33
2023-02-08T04:57:44.202Z,19.45
2023-02-08T05:00:16.078Z,18.77
2023-02-08T05:02:47.521Z,21.60
2023-02-08T05:05:19.094Z,19.75
2023-02-08T05:07:50.592Z,19.48
2023-02-08T05:10:22.569Z,19.15
2023-02-08T05:12:54.148Z,18.45
2023-02-08T05:15:25.623Z,19.35
2023-02-08T05:17:57.059Z,19.05
2023-02-08T05:20:28.524Z,20.95
2023-02-08T05:23:00.382Z,19.87
2023-02-08T05:25:31.923Z,20.58
2023-02-08T05:28:03.404Z,21.35
2023-02-08T05:30:34.807Z,22.85
2023-02-08T05:33:06.268Z,17.40
2023-02-08T05:35:37.694Z,18.83
2023-02-08T05:38:09.125Z,18.92
2023-02-08T05:40:40.930Z,19.10
2023-02-08T05:43:12.472Z,22.02
2023-02-08T05:45:43.884Z,21.50
2023-02-08T05:48:15.326Z,18.60
2023-02-08T05:50:46.743Z,22.53
2023-02-08T05:53:18.238Z,20.10
2023-02-08T05:55:49.768Z,19.40
2023-02-08T05:58:21.288Z,20.37
2023-02-08T06:00:52.714Z,18.60
2023-02-08T06:03:24.202Z,19.10
2023-02-08T06:05:55.628Z,20.57
2023-02-08T06:08:27.574Z,19.25
2023-02-08T06:10:59.064Z,19.35
2023-02-08T06:13:30.742Z,17.65
2023-02-08T06:16:02.314Z,21.30
2023-02-08T06:18:33.774Z,19.73
2023-02-08T06:21:05.789Z,19.73
2023-02-08T06:23:37.189Z,21.98
2023-02-08T06:26:08.664Z,22.27
2023-02-08T06:28:40.134Z,20.50
2023-02-08T06:31:11.625Z,20.20
2023-02-08T06:33:43.057Z,21.10
2023-02-08T06:36:14.506Z,19.88
2023-02-08T06:38:45.913Z,19.50
2023-02-08T06:41:17.343Z,19.33
2023-02-08T06:43:48.755Z,19.03
2023-02-08T06:46:20.180Z,20.38
2023-02-08T06:48:51.583Z,20.17
2023-02-08T06:51:23.026Z,19.33
2023-02-08T06:53:54.541Z,21.75
2023-02-08T06:56:26.090Z,25.50
2023-02-08T06:58:58.202Z,22.97
2023-02-08T07:01:29.683Z,22.90
2023-02-08T07:04:01.207Z,19.67
2023-02-08T07:06:32.754Z,22.98
2023-02-08T07:09:04.273Z,19.95
2023-02-08T07:11:35.792Z,20.30
2023-02-08T07:14:07.280Z,20.33
2023-02-08T07:16:38.832Z,23.50
2023-02-08T07:19:10.323Z,18.77
2023-02-08T07:21:41.783Z,21.75
2023-02-08T07:24:13.165Z,19.45
2023-02-08T07:26:44.582Z,20.42
2023-02-08T07:29:16.033Z,18.85
2023-02-08T07:31:47.544Z,18.58
2023-02-08T07:34:18.980Z,23.85
2023-02-08T07:36:50.411Z,20.88
2023-02-08T07:39:21.955Z,21.73
2023-02-08T07:41:53.438Z,22.57
2023-02-08T07:44:24.933Z,19.67
2023-02-08T07:46:56.343Z,19.15
2023-02-08T07:49:27.986Z,19.30
2023-02-08T07:52:00.527Z,19.90
2023-02-08T07:54:31.955Z,24.48
2023-02-08T07:57:03.864Z,22.27
2023-02-08T07:59:35.413Z,21.42
2023-02-08T08:02:06.906Z,19.70
2023-02-08T08:04:38.368Z,20.35
2023-02-08T08:07:09.815Z,20.13
2023-02-08T08:09:41.320Z,20.53
2023-02-08T08:12:12.757Z,20.77
2023-02-08T08:14:44.235Z,21.63
2023-02-08T08:17:15.687Z,22.67
2023-02-08T08:19:47.189Z,18.75
2023-02-08T08:22:18.642Z,21.45
2023-02-08T08:24:50.124Z,21.67
2023-02-08T08:27:21.633Z,20.83
2023-02-08T08:29:53.100Z,20.98
2023-02-08T08:32:24.528Z,19.08
2023-02-08T08:34:55.990Z,20.00
2023-02-08T08:37:27.435Z,19.33
2023-02-08T08:39:59.193Z,17.88
2023-02-08T08:42:30.635Z,20.52
2023-02-08T08:45:03.397Z,19.88
2023-02-08T08:47:35.016Z,21.20
2023-02-08T08:50:06.704Z,20.50
2023-02-08T08:52:38.165Z,20.30
2023-02-08T08:55:10.089Z,18.88
2023-02-08T08:57:41.511Z,19.48
2023-02-08T09:00:13.414Z,18.58
2023-02-08T09:02:44.879Z,19.13
2023-02-08T09:05:16.457Z,20.55
2023-02-08T09:07:47.865Z,18.27
2023-02-08T09:10:19.518Z,19.05
2023-02-08T09:12:50.924Z,18.45
2023-02-08T09:15:22.398Z,19.98
2023-02-08T09:17:53.860Z,19.60
2023-02-08T09:20:25.314Z,18.38
2023-02-08T09:22:56.801Z,20.75
2023-02-08T09:25:28.266Z,18.63
2023-02-08T09:27:59.717Z,20.03
2023-02-08T09:30:31.220Z,21.77
2023-02-08T09:33:02.615Z,18.60
2023-02-08T09:35:34.038Z,17.40
2023-02-08T09:38:07.110Z,19.88
2023-02-08T09:40:51.312Z,17.58
2023-02-08T09:43:37.426Z,19.05
2023-02-08T09:46:20.651Z,19.13
2023-02-08T09:48:56.404Z,19.27
2023-02-08T09:51:52.683Z,20.08
2023-02-08T09:54:35.148Z,19.77
2023-02-08T09:57:13.451Z,20.58
2023-02-08T10:00:01.577Z,21.75
2023-02-08T10:02:34.307Z,21.98
2023-02-08T10:05:11.905Z,21.05
2023-02-08T10:07:43.710Z,21.27
2023-02-08T10:10:32.878Z,20.30
2023-02-08T10:13:41.341Z,23.65
2023-02-08T10:16:47.304Z,22.25
2023-02-08T10:19:45.821Z,20.05
2023-02-08T10:22:29.781Z,21.57
2023-02-08T10:25:39.385Z,19.50
2023-02-08T10:28:31.118Z,17.65
2023-02-08T10:31:19.043Z,20.25
2023-02-08T10:34:02.142Z,16.42
2023-02-08T10:36:36.965Z,18.02
2023-02-08T10:39:39.347Z,18.50
2023-02-08T10:42:17.152Z,16.70
2023-02-08T10:45:26.983Z,16.97
2023-02-08T10:48:11.541Z,17.05
2023-02-08T10:50:44.545Z,15.52
2023-02-08T10:53:17.636Z,18.65
2023-02-08T10:55:49.352Z,17.48
2023-02-08T10:58:24.107Z,15.35
2023-02-08T11:00:56.140Z,16.10
2023-02-08T11:03:29.557Z,15.48
2023-02-08T11:06:01.029Z,16.10
2023-02-08T11:08:32.467Z,16.03
2023-02-08T11:11:05.731Z,14.18
2023-02-08T11:13:45.945Z,15.43
2023-02-08T11:16:26.547Z,16.53
2023-02-08T11:19:02.470Z,16.20
2023-02-08T11:21:40.828Z,14.25
2023-02-08T11:24:14.972Z,13.95
2023-02-08T11:26:46.405Z,12.47
2023-02-08T11:29:24.207Z,12.70
2023-02-08T11:31:55.701Z,15.75
2023-02-08T11:34:35.787Z,15.90
2023-02-08T11:37:22.750Z,12.90
2023-02-08T11:40:04.166Z,13.75
2023-02-08T11:42:41.701Z,13.73
2023-02-08T11:45:22.494Z,12.45
2023-02-08T11:47:54.330Z,11.38
2023-02-08T11:50:36.662Z,14.48
2023-02-08T11:53:28.323Z,13.35
2023-02-08T11:56:07.400Z,10.90
2023-02-08T11:58:38.820Z,12.32
2023-02-08T12:01:21.089Z,11.68
2023-02-08T12:03:52.761Z,11.68
2023-02-08T12:07:05.766Z,10.63
2023-02-08T12:10:19.243Z,9.48
2023-02-08T12:13:16.271Z,10.60
2023-02-08T12:16:22.370Z,10.60
2023-02-08T12:19:29.662Z,10.97
2023-02-08T12:22:13.364Z,9.55
2023-02-08T12:24:51.996Z,10.10
2023-02-08T12:27:41.826Z,10.38
2023-02-08T12:30:34.061Z,9.40
2023-02-08T12:33:17.438Z,9.93
2023-02-08T12:36:05.104Z,9.30
2023-02-08T12:38:49.138Z,10.67
2023-02-08T12:41:45.753Z,11.48
2023-02-08T12:44:44.927Z,8.90
2023-02-08T12:47:51.823Z,11.27
2023-02-08T12:50:45.992Z,11.32
2023-02-08T12:53:43.825Z,9.65
2023-02-08T12:56:30.421Z,10.88
2023-02-08T12:59:13.206Z,9.48
2023-02-08T13:01:48.824Z,13.02
2023-02-08T13:04:38.428Z,11.50
2023-02-08T13:07:16.324Z,10.23
2023-02-08T13:10:23.019Z,9.02
2023-02-08T13:12:58.869Z,8.82
2023-02-08T13:15:45.305Z,9.75
2023-02-08T13:18:21.670Z,8.65
2023-02-08T13:20:59.224Z,10.30
2023-02-08T13:23:47.025Z,9.30
2023-02-08T13:26:34.288Z,9.45
2023-02-08T13:29:07.051Z,10.45
2023-02-08T13:31:42.313Z,10.02
2023-02-08T13:34:22.269Z,9.50
2023-02-08T13:36:56.784Z,9.25
2023-02-08T13:39:36.896Z,9.75
2023-02-08T13:42:21.118Z,7.93
2023-02-08T13:44:55.423Z,8.90
2023-02-08T13:47:48.868Z,6.85
2023-02-08T13:50:44.515Z,8.52
2023-02-08T13:53:17.880Z,7.70
2023-02-08T13:55:58.558Z,6.93
2023-02-08T13:58:48.342Z,7.97
2023-02-08T14:01:23.550Z,9.43
2023-02-08T14:04:07.409Z,7.82
2023-02-08T14:06:41.918Z,8.43
2023-02-08T14:09:21.919Z,8.68
2023-02-08T14:12:00.196Z,8.13
2023-02-08T14:14:35.819Z,9.13
2023-02-08T14:17:07.223Z,10.00
2023-02-08T14:19:41.916Z,8.27
2023-02-08T14:22:17.042Z,8.07
2023-02-08T14:25:00.337Z,11.02
2023-02-08T14:27:42.103Z,8.40
2023-02-08T14:30:16.253Z,8.13
2023-02-08T14:32:51.927Z,7.68
2023-02-08T14:35:26.092Z,9.32
2023-02-08T14:38:19.287Z,8.50
2023-02-08T14:40:59.536Z,10.35
2023-02-08T14:43:36.318Z,8.95
2023-02-08T14:46:39.001Z,8.75
2023-02-08T14:49:18.607Z,9.45
2023-02-08T14:52:06.854Z,9.07
2023-02-08T14:54:50.474Z,10.38
2023-02-08T14:57:35.136Z,10.38
2023-02-08T15:00:22.275Z,8.93
2023-02-08T15:02:54.311Z,10.65
2023-02-08T15:05:35.344Z,8.23
2023-02-08T15:08:07.056Z,9.27
2023-02-08T15:10:42.488Z,8.90
2023-02-08T15:13:21.976Z,9.73
2023-02-08T15:15:55.999Z,9.20
2023-02-08T15:18:31.404Z,9.88
2023-02-08T15:21:28.584Z,9.40
2023-02-08T15:24:06.058Z,10.03
2023-02-08T15:26:43.791Z,8.77
2023-02-08T15:29:39.102Z,8.73
2023-02-08T15:32:20.239Z,8.45
2023-02-08T15:34:58.035Z,9.35
2023-02-08T15:37:34.646Z,8.77
2023-02-08T15:40:06.437Z,9.68
2023-02-08T15:42:43.955Z,8.55
2023-02-08T15:45:24.377Z,9.40
2023-02-08T15:47:57.226Z,8.23
2023-02-08T15:50:29.355Z,9.20
2023-02-08T15:53:06.628Z,7.32
2023-02-08T15:55:47.117Z,7.00
2023-02-08T15:58:28.363Z,8.32
2023-02-08T16:01:02.487Z,6.80
2023-02-08T16:03:34.325Z,6.82
2023-02-08T16:06:07.256Z,7.13
2023-02-08T16:08:43.029Z,7.35
2023-02-08T16:11:22.052Z,9.57
2023-02-08T16:13:56.441Z,7.40
2023-02-08T16:16:40.399Z,8.30
2023-02-08T16:19:22.327Z,7.38
2023-02-08T16:22:15.163Z,7.43
2023-02-08T16:24:46.706Z,7.57
2023-02-08T16:27:26.058Z,9.30
2023-02-08T16:29:58.030Z,7.83
2023-02-08T16:32:33.507Z,8.47
2023-02-08T16:35:21.942Z,7.20
2023-02-08T16:37:58.452Z,6.93
2023-02-08T16:40:40.961Z,6.97
2023-02-08T16:43:22.299Z,9.10
2023-02-08T16:46:09.176Z,9.15
2023-02-08T16:48:43.362Z,9.38
2023-02-08T16:51:18.267Z,7.95
2023-02-08T16:53:55.862Z,9.35
2023-02-08T16:56:27.390Z,8.90
2023-02-08T16:58:58.817Z,8.95
2023-02-08T17:01:30.351Z,7.45
2023-02-08T17:04:01.865Z,11.75
2023-02-08T17:06:35.682Z,9.32
2023-02-08T17:09:08.969Z,9.52
2023-02-08T17:11:41.444Z,10.13
2023-02-08T17:14:13.058Z,10.57
2023-02-08T17:16:44.508Z,10.63
2023-02-08T17:19:18.332Z,15.05
2023-02-08T17:21:49.799Z,13.32
2023-02-08T17:24:21.274Z,9.07
2023-02-08T17:26:53.110Z,11.10
2023-02-08T17:29:24.544Z,11.82
2023-02-08T17:31:56.086Z,10.27
2023-02-08T17:34:27.546Z,9.25
2023-02-08T17:36:59.030Z,11.32
2023-02-08T17:39:30.475Z,9.82
2023-02-08T17:42:01.942Z,9.32
2023-02-08T17:44:33.441Z,11.15
2023-02-08T17:47:04.869Z,11.82
2023-02-08T17:49:36.284Z,11.50
2023-02-08T17:52:07.699Z,12.45
2023-02-08T17:54:39.147Z,10.65
2023-02-08T17:57:10.564Z,11.50
2023-02-08T17:59:42.286Z,9.63
2023-02-08T18:02:13.698Z,11.50
2023-02-08T18:04:45.171Z,13.43
2023-02-08T18:07:16.623Z,14.53
2023-02-08T18:09:48.086Z,12.85
2023-02-08T18:12:19.564Z,13.30
2023-02-08T18:14:50.981Z,11.43
2023-02-08T18:17:22.393Z,12.57
2023-02-08T18:19:53.801Z,12.05
2023-02-08T18:22:26.446Z,15.37
2023-02-08T18:24:57.845Z,11.95
2023-02-08T18:27:29.965Z,13.32
2023-02-08T18:30:01.589Z,12.15
2023-02-08T18:32:33.092Z,12.37
2023-02-08T18:35:05.601Z,15.60
2023-02-08T18:37:37.653Z,13.55
2023-02-08T18:40:10.028Z,11.93
2023-02-08T18:42:41.550Z,14.65
2023-02-08T18:45:13.013Z,12.32
2023-02-08T18:47:44.477Z,16.00
2023-02-08T18:50:15.924Z,14.70
2023-02-08T18:52:47.341Z,13.70
2023-02-08T18:55:18.796Z,13.02
2023-02-08T18:57:50.200Z,14.60
2023-02-08T19:00:21.763Z,15.23
2023-02-08T19:02:53.256Z,14.43
2023-02-08T19:05:24.738Z,13.77
2023-02-08T19:07:56.141Z,12.02
2023-02-08T19:10:27.536Z,14.40
2023-02-08T19:12:58.929Z,12.95
2023-02-08T19:15:30.427Z,15.70
2023-02-08T19:18:01.840Z,15.32
2023-02-08T19:20:37.904Z,13.75
2023-02-08T19:23:09.329Z,14.47
2023-02-08T19:25:40.855Z,14.48
2023-02-08T19:28:12.397Z,17.10
2023-02-08T19:30:43.916Z,14.55
2023-02-08T19:33:15.364Z,14.25
2023-02-08T19:35:46.985Z,15.37
2023-02-08T19:38:18.479Z,16.15
2023-02-08T19:40:54.230Z,16.17
2023-02-08T19:43:25.771Z,16.30
2023-02-08T19:45:58.455Z,15.43
2023-02-08T19:48:29.866Z,22.50
2023-02-08T19:51:01.677Z,18.48
2023-02-08T19:53:33.542Z,17.45
2023-02-08T19:56:10.887Z,16.70
2023-02-08T19:58:43.350Z,16.55
2023-02-08T20:01:20.553Z,15.93
2023-02-08T20:03:53.763Z,16.60
2023-02-08T20:06:28.449Z,17.20
2023-02-08T20:08:59.908Z,14.50
2023-02-08T20:11:34.130Z,15.73
2023-02-08T20:14:06.955Z,15.40
2023-02-08T20:16:38.468Z,19.40
2023-02-08T20:19:10.127Z,17.33
2023-02-08T20:21:42.399Z,16.92
2023-02-08T20:24:15.609Z,21.85
2023-02-08T20:26:47.979Z,20.95
2023-02-08T20:29:19.542Z,17.75
2023-02-08T20:31:51.059Z,17.95
2023-02-08T20:34:22.747Z,18.60
2023-02-08T20:37:06.487Z,16.27
2023-02-08T20:39:38.651Z,16.92
2023-02-08T20:42:10.095Z,17.95
2023-02-08T20:44:41.521Z,16.48
2023-02-08T20:47:12.900Z,18.88
2023-02-08T20:49:44.788Z,17.88
2023-02-08T20:52:17.152Z,21.20
2023-02-08T20:54:48.575Z,21.70
2023-02-08T20:57:20.035Z,25.25
2023-02-08T20:59:51.672Z,21.45
2023-02-08T21:02:23.992Z,24.40
2023-02-08T21:04:55.529Z,21.60
2023-02-08T21:07:26.979Z,23.90
2023-02-08T21:09:58.356Z,21.70
2023-02-08T21:12:30.719Z,22.08
2023-02-08T21:15:03.100Z,19.02
2023-02-08T21:17:34.781Z,21.85
2023-02-08T21:20:06.392Z,24.73
2023-02-08T21:22:37.824Z,19.00
2023-02-08T21:25:09.223Z,19.13
2023-02-08T21:27:40.697Z,19.10
2023-02-08T21:30:12.342Z,18.42
2023-02-08T21:32:43.790Z,22.80
2023-02-08T21:35:15.276Z,23.17
2023-02-08T21:37:46.760Z,27.30
2023-02-08T21:40:18.272Z,25.65
2023-02-08T21:42:49.731Z,23.45
2023-02-08T21:45:21.153Z,25.92
2023-02-08T21:47:52.548Z,24.35
2023-02-08T21:50:23.959Z,23.60
2023-02-08T21:52:55.431Z,24.93
2023-02-08T21:55:26.842Z,22.92
2023-02-08T21:57:58.335Z,23.05
2023-02-08T22:00:29.910Z,22.23
2023-02-08T22:03:01.405Z,19.55
2023-02-08T22:05:32.883Z,22.35
2023-02-08T22:08:04.598Z,21.88
2023-02-08T22:10:36.066Z,20.35
2023-02-08T22:13:07.527Z,23.65
2023-02-08T22:15:39.273Z,20.23
2023-02-08T22:18:10.763Z,20.15
2023-02-08T22:20:42.191Z,20.55
2023-02-08T22:23:13.620Z,19.63
2023-02-08T22:25:45.374Z,22.02
2023-02-08T22:28:16.780Z,18.40
2023-02-08T22:30:48.754Z,21.33
2023-02-08T22:33:20.315Z,20.83
2023-02-08T22:35:51.745Z,19.10
2023-02-08T22:38:24.220Z,19.75
2023-02-08T22:40:55.671Z,18.83
2023-02-08T22:43:28.940Z,20.02
2023-02-08T22:46:01.076Z,18.03
2023-02-08T22:48:33.407Z,18.75
2023-02-08T22:51:16.355Z,19.08
2023-02-08T22:53:47.877Z,18.75
2023-02-08T22:56:19.985Z,17.05
2023-02-08T22:58:51.457Z,17.77
2023-02-08T23:01:22.938Z,17.88
2023-02-08T23:03:54.382Z,17.63
2023-02-08T23:06:25.833Z,16.20
2023-02-08T23:08:58.314Z,17.23
2023-02-08T23:11:29.729Z,15.88
2023-02-08T23:14:01.166Z,16.27
2023-02-08T23:16:32.723Z,15.93
2023-02-08T23:19:05.002Z,14.98
2023-02-08T23:21:37.975Z,15.07
2023-02-08T23:24:11.076Z,15.60
2023-02-08T23:26:42.644Z,15.32
2023-02-08T23:29:14.074Z,14.60
2023-02-08T23:31:45.688Z,15.45
2023-02-08T23:34:17.452Z,15.20
2023-02-08T23:36:48.916Z,13.23
2023-02-08T23:39:20.327Z,15.20
2023-02-08T23:41:55.277Z,13.77
2023-02-08T23:44:26.732Z,14.80
2023-02-08T23:46:58.210Z,12.75
2023-02-08T23:49:29.654Z,15.47
2023-02-08T23:52:01.086Z,13.15
2023-02-08T23:54:32.540Z,13.13
2023-02-08T23:57:04.480Z,13.65
2023-02-08T23:59:36.455Z,13.43
